createdAt,value
2023-08-07T00:01:31.861Z,11.72
2023-08-07T00:03:33.562Z,11.74
2023-08-07T00:05:35.369Z,11.70
2023-08-07T00:07:37.469Z,11.77
2023-08-07T00:09:39.012Z,11.77
2023-08-07T00:11:40.522Z,11.79
2023-08-07T00:13:42.056Z,11.78
2023-08-07T00:15:44.112Z,11.71
2023-08-07T00:17:45.890Z,11.66
2023-08-07T00:19:47.582Z,11.67
2023-08-07T00:21:49.150Z,11.71
2023-08-07T00:23:51.135Z,11.69
2023-08-07T00:25:52.909Z,11.81
2023-08-07T00:27:54.521Z,11.67
2023-08-07T00:29:56.168Z,11.58
2023-08-07T00:31:57.969Z,11.58
2023-08-07T00:34:00.861Z,11.51
2023-08-07T00:36:04.153Z,11.54
2023-08-07T00:38:05.666Z,11.53
2023-08-07T00:40:08.061Z,11.44
2023-08-07T00:42:09.620Z,11.44
2023-08-07T00:44:14.648Z,11.40
2023-08-07T00:46:16.313Z,11.44
2023-08-07T00:48:18.547Z,11.44
2023-08-07T00:50:22.769Z,11.41
2023-08-07T00:52:26.197Z,11.45
2023-08-07T00:54:28.094Z,11.43
2023-08-07T00:56:31.320Z,11.43
2023-08-07T00:58:34.565Z,11.45
2023-08-07T01:00:36.849Z,11.43
2023-08-07T01:02:38.637Z,11.46
2023-08-07T01:04:40.523Z,11.43
2023-08-07T01:06:42.143Z,11.45
2023-08-07T01:08:44.394Z,11.47
2023-08-07T01:11:13.771Z,11.54
2023-08-07T01:13:24.214Z,11.50
2023-08-07T01:15:31.740Z,11.40
2023-08-07T01:17:35.615Z,11.41
2023-08-07T01:19:38.196Z,11.29
2023-08-07T01:21:40.997Z,11.21
2023-08-07T01:23:43.135Z,11.27
2023-08-07T01:25:45.295Z,11.22
2023-08-07T01:28:19.540Z,11.26
2023-08-07T01:30:34.564Z,11.25
2023-08-07T01:33:00.714Z,11.24
2023-08-07T01:35:07.076Z,11.27
2023-08-07T01:37:11.838Z,11.21
2023-08-07T01:39:13.567Z,11.26
2023-08-07T01:41:15.215Z,11.23
2023-08-07T01:43:17.892Z,11.28
2023-08-07T01:45:26.615Z,11.27
2023-08-07T01:47:28.272Z,11.34
2023-08-07T01:49:30.164Z,11.33
2023-08-07T01:51:31.890Z,11.33
2023-08-07T01:53:33.519Z,11.25
2023-08-07T01:55:35.116Z,11.26
2023-08-07T01:57:36.663Z,11.25
2023-08-07T01:59:39.527Z,11.20
2023-08-07T02:01:41.353Z,11.22
2023-08-07T02:03:43.270Z,11.29
2023-08-07T02:05:47.162Z,11.28
2023-08-07T02:07:48.756Z,11.27
2023-08-07T02:09:50.295Z,11.24
2023-08-07T02:11:52.230Z,11.19
2023-08-07T02:13:54.461Z,11.12
2023-08-07T02:15:56.682Z,11.07
2023-08-07T02:17:58.437Z,11.01
2023-08-07T02:20:00.298Z,11.08
2023-08-07T02:22:02.762Z,11.13
2023-08-07T02:24:04.546Z,11.09
2023-08-07T02:26:06.921Z,11.07
2023-08-07T02:28:08.507Z,11.06
2023-08-07T02:30:10.376Z,10.99
2023-08-07T02:32:12.032Z,10.96
2023-08-07T02:34:13.658Z,11.01
2023-08-07T02:36:15.217Z,11.04
2023-08-07T02:38:17.053Z,10.98
2023-08-07T02:40:20.138Z,10.99
2023-08-07T02:42:21.765Z,11.04
2023-08-07T02:44:23.643Z,11.01
2023-08-07T02:46:25.343Z,11.00
2023-08-07T02:48:26.958Z,10.95
2023-08-07T02:50:30.705Z,10.95
2023-08-07T02:52:32.380Z,10.95
2023-08-07T02:54:34.681Z,10.97
2023-08-07T02:56:36.413Z,10.99
2023-08-07T02:58:37.994Z,11.06
2023-08-07T03:00:39.548Z,11.08
2023-08-07T03:02:41.736Z,11.06
2023-08-07T03:04:43.336Z,11.05
2023-08-07T03:06:44.969Z,10.84
2023-08-07T03:08:46.505Z,10.89
2023-08-07T03:10:53.870Z,10.96
2023-08-07T03:12:55.457Z,11.02
2023-08-07T03:14:57.037Z,11.01
2023-08-07T03:16:58.561Z,10.90
2023-08-07T03:19:00.142Z,10.86
2023-08-07T03:21:01.912Z,10.85
2023-08-07T03:23:04.811Z,10.90
2023-08-07T03:25:07.104Z,10.84
2023-08-07T03:27:08.874Z,10.85
2023-08-07T03:29:10.580Z,10.78
2023-08-07T03:31:13.934Z,10.77
2023-08-07T03:33:16.179Z,10.80
2023-08-07T03:35:17.908Z,10.77
2023-08-07T03:37:19.477Z,10.70
2023-08-07T03:39:21.256Z,10.68
2023-08-07T03:41:22.917Z,10.69
2023-08-07T03:43:24.841Z,10.67
2023-08-07T03:45:26.812Z,10.74
2023-08-07T03:47:28.860Z,10.65
2023-08-07T03:49:30.948Z,10.69
2023-08-07T03:51:33.315Z,10.65
2023-08-07T03:53:35.180Z,10.64
2023-08-07T03:55:37.569Z,10.74
2023-08-07T03:57:39.512Z,10.74
2023-08-07T03:59:41.135Z,10.79
2023-08-07T04:01:42.705Z,10.83
2023-08-07T04:03:46.399Z,10.82
2023-08-07T04:05:53.044Z,10.87
2023-08-07T04:07:54.781Z,10.75
2023-08-07T04:09:58.190Z,10.81
2023-08-07T04:11:59.871Z,10.78
2023-08-07T04:14:02.008Z,10.81
2023-08-07T04:16:05.887Z,10.81
2023-08-07T04:18:09.054Z,10.83
2023-08-07T04:20:11.346Z,10.79
2023-08-07T04:22:14.211Z,10.79
2023-08-07T04:24:15.978Z,10.79
2023-08-07T04:26:17.672Z,10.77
2023-08-07T04:28:19.887Z,10.72
2023-08-07T04:30:22.310Z,10.74
2023-08-07T04:32:25.825Z,10.67
2023-08-07T04:34:28.362Z,10.71
2023-08-07T04:36:29.982Z,10.73
2023-08-07T04:38:31.521Z,10.75
2023-08-07T04:40:33.027Z,10.75
2023-08-07T04:42:34.991Z,10.77
2023-08-07T04:44:36.504Z,10.75
2023-08-07T04:46:38.141Z,10.79
2023-08-07T04:48:39.703Z,10.76
2023-08-07T04:50:41.842Z,10.74
2023-08-07T04:52:43.499Z,10.82
2023-08-07T04:54:45.052Z,10.79
2023-08-07T04:56:46.565Z,10.79
2023-08-07T04:58:48.090Z,10.82
2023-08-07T05:00:56.110Z,10.82
2023-08-07T05:02:58.056Z,10.90
2023-08-07T05:04:59.849Z,10.95
2023-08-07T05:07:01.431Z,10.95
2023-08-07T05:09:04.325Z,10.91
2023-08-07T05:11:05.844Z,10.83
2023-08-07T05:13:07.400Z,10.84
2023-08-07T05:15:09.240Z,10.84
2023-08-07T05:17:10.849Z,10.90
2023-08-07T05:19:12.483Z,10.87
2023-08-07T05:21:14.045Z,10.95
2023-08-07T05:23:16.097Z,10.92
2023-08-07T05:25:18.221Z,10.96
2023-08-07T05:27:20.399Z,10.92
2023-08-07T05:29:21.946Z,10.93
2023-08-07T05:31:23.493Z,10.80
2023-08-07T05:33:25.072Z,10.85
2023-08-07T05:35:26.860Z,10.82
2023-08-07T05:37:28.366Z,10.85
2023-08-07T05:39:30.449Z,10.82
2023-08-07T05:41:31.969Z,10.91
2023-08-07T05:43:33.834Z,10.94
2023-08-07T05:45:35.377Z,10.92
2023-08-07T05:47:36.955Z,10.86
2023-08-07T05:49:38.650Z,10.91
2023-08-07T05:51:40.152Z,10.84
2023-08-07T05:53:41.826Z,10.86
2023-08-07T05:55:43.454Z,10.84
2023-08-07T05:57:45.068Z,10.79
2023-08-07T05:59:46.648Z,10.79
2023-08-07T06:01:48.216Z,10.82
2023-08-07T06:03:49.963Z,10.84
2023-08-07T06:05:51.604Z,10.75
2023-08-07T06:07:53.120Z,10.82
2023-08-07T06:09:54.701Z,10.84
2023-08-07T06:11:56.422Z,10.85
2023-08-07T06:13:58.208Z,10.80
2023-08-07T06:15:59.855Z,10.78
2023-08-07T06:18:01.451Z,10.80
2023-08-07T06:20:05.671Z,10.86
2023-08-07T06:22:08.823Z,10.94
2023-08-07T06:24:10.445Z,10.99
2023-08-07T06:26:12.015Z,10.89
2023-08-07T06:28:13.885Z,10.92
2023-08-07T06:30:16.153Z,10.98
2023-08-07T06:32:19.437Z,11.00
2023-08-07T06:34:21.110Z,10.95
2023-08-07T06:36:22.704Z,10.95
2023-08-07T06:38:24.326Z,10.92
2023-08-07T06:40:26.035Z,10.99
2023-08-07T06:42:27.677Z,10.83
2023-08-07T06:44:30.488Z,10.91
2023-08-07T06:46:32.264Z,10.87
2023-08-07T06:48:33.909Z,10.95
2023-08-07T06:50:35.471Z,10.91
2023-08-07T06:52:37.204Z,10.97
2023-08-07T06:54:38.774Z,11.01
2023-08-07T06:56:43.234Z,11.09
2023-08-07T06:58:45.394Z,11.06
2023-08-07T07:00:47.120Z,11.08
2023-08-07T07:02:48.753Z,11.12
2023-08-07T07:04:50.496Z,11.11
2023-08-07T07:06:52.024Z,11.10
2023-08-07T07:08:56.557Z,11.17
2023-08-07T07:10:59.355Z,11.22
2023-08-07T07:13:01.235Z,11.21
2023-08-07T07:15:03.339Z,11.22
2023-08-07T07:17:05.648Z,11.13
2023-08-07T07:19:09.399Z,11.09
2023-08-07T07:21:10.995Z,11.02
2023-08-07T07:23:12.960Z,11.06
2023-08-07T07:25:14.616Z,11.07
2023-08-07T07:27:16.187Z,10.98
2023-08-07T07:29:19.927Z,11.03
2023-08-07T07:31:21.491Z,11.03
2023-08-07T07:33:23.061Z,11.05
2023-08-07T07:35:25.384Z,11.00
2023-08-07T07:37:26.943Z,11.01
2023-08-07T07:39:28.505Z,11.01
2023-08-07T07:41:30.073Z,11.06
2023-08-07T07:43:32.973Z,11.02
2023-08-07T07:45:36.806Z,10.98
2023-08-07T07:47:38.580Z,10.98
2023-08-07T07:49:40.286Z,10.97
2023-08-07T07:51:41.804Z,10.95
2023-08-07T07:53:43.380Z,11.03
2023-08-07T07:55:48.994Z,11.07
2023-08-07T07:57:50.705Z,11.08
2023-08-07T07:59:52.275Z,11.08
2023-08-07T08:01:54.613Z,11.13
2023-08-07T08:03:56.744Z,11.11
2023-08-07T08:05:58.800Z,11.03
2023-08-07T08:08:00.423Z,11.19
2023-08-07T08:10:02.146Z,11.17
2023-08-07T08:12:04.485Z,11.10
2023-08-07T08:14:06.203Z,11.16
2023-08-07T08:16:09.174Z,11.18
2023-08-07T08:18:10.930Z,11.23
2023-08-07T08:20:12.616Z,11.12
2023-08-07T08:22:14.129Z,11.06
2023-08-07T08:24:15.673Z,11.05
2023-08-07T08:26:17.251Z,11.02
2023-08-07T08:28:19.382Z,11.15
2023-08-07T08:30:22.486Z,11.09
2023-08-07T08:32:24.202Z,11.01
2023-08-07T08:34:27.990Z,10.98
2023-08-07T08:36:29.498Z,11.03
2023-08-07T08:38:33.738Z,11.10
2023-08-07T08:40:38.658Z,11.06
2023-08-07T08:42:41.661Z,11.08
2023-08-07T08:45:06.557Z,11.11
2023-08-07T08:47:09.841Z,11.17
2023-08-07T08:49:12.260Z,11.10
2023-08-07T08:51:14.162Z,11.15
2023-08-07T08:53:16.621Z,11.27
2023-08-07T08:55:18.742Z,11.22
2023-08-07T08:57:20.526Z,11.16
2023-08-07T08:59:22.680Z,11.23
2023-08-07T09:01:26.820Z,11.20
2023-08-07T09:03:29.263Z,11.15
2023-08-07T09:05:32.687Z,11.13
2023-08-07T09:07:35.138Z,11.19
2023-08-07T09:09:36.813Z,11.24
2023-08-07T09:11:39.202Z,11.28
2023-08-07T09:13:41.640Z,11.12
2023-08-07T09:15:48.846Z,11.28
2023-08-07T09:17:52.039Z,11.22
2023-08-07T09:19:54.051Z,11.26
2023-08-07T09:21:56.198Z,11.25
2023-08-07T09:23:57.720Z,11.31
2023-08-07T09:26:01.448Z,11.35
2023-08-07T09:28:06.901Z,11.35
2023-08-07T09:30:12.235Z,11.45
2023-08-07T09:32:14.496Z,11.41
2023-08-07T09:34:20.911Z,11.46
2023-08-07T09:36:24.513Z,11.40
2023-08-07T09:38:30.853Z,11.43
2023-08-07T09:40:32.910Z,11.51
2023-08-07T09:42:38.654Z,11.50
2023-08-07T09:44:40.319Z,11.45
2023-08-07T09:46:43.729Z,11.50
2023-08-07T09:48:45.374Z,11.50
2023-08-07T09:50:46.958Z,11.49
2023-08-07T09:52:51.703Z,11.58
2023-08-07T09:54:57.246Z,11.67
2023-08-07T09:57:02.351Z,11.56
2023-08-07T09:59:04.860Z,11.47
2023-08-07T10:01:08.386Z,11.57
2023-08-07T10:03:10.142Z,11.53
2023-08-07T10:05:12.194Z,11.53
2023-08-07T10:07:16.482Z,11.56
2023-08-07T10:09:18.120Z,11.58
2023-08-07T10:11:20.537Z,11.55
2023-08-07T10:13:34.542Z,11.56
2023-08-07T10:15:43.123Z,11.60
2023-08-07T10:17:45.356Z,11.63
2023-08-07T10:19:47.155Z,11.52
2023-08-07T10:21:50.279Z,11.54
2023-08-07T10:23:55.153Z,11.64
2023-08-07T10:25:58.097Z,11.56
2023-08-07T10:28:01.485Z,11.54
2023-08-07T10:30:07.156Z,11.54
2023-08-07T10:32:09.707Z,11.49
2023-08-07T10:34:11.898Z,11.40
2023-08-07T10:36:13.802Z,11.48
2023-08-07T10:38:15.829Z,11.49
2023-08-07T10:40:18.590Z,11.47
2023-08-07T10:42:20.192Z,11.51
2023-08-07T10:44:27.092Z,11.59
2023-08-07T10:46:28.746Z,11.55
2023-08-07T10:48:30.407Z,11.58
2023-08-07T10:50:47.034Z,11.64
2023-08-07T10:52:53.162Z,11.65
2023-08-07T10:54:55.440Z,11.76
2023-08-07T10:56:57.053Z,11.74
2023-08-07T10:58:58.949Z,11.68
2023-08-07T11:01:23.335Z,11.67
2023-08-07T11:03:29.005Z,11.63
2023-08-07T11:05:31.886Z,11.69
2023-08-07T11:07:33.680Z,11.69
2023-08-07T11:09:35.954Z,11.70
2023-08-07T11:11:44.935Z,11.67
2023-08-07T11:13:46.854Z,11.71
2023-08-07T11:15:50.521Z,11.64
2023-08-07T11:17:53.374Z,11.57
2023-08-07T11:19:56.800Z,11.60
2023-08-07T11:21:59.414Z,11.61
2023-08-07T11:24:01.173Z,11.68
2023-08-07T11:26:03.989Z,11.66
2023-08-07T11:28:05.599Z,11.77
2023-08-07T11:30:12.640Z,11.76
2023-08-07T11:32:14.917Z,11.79
2023-08-07T11:34:19.354Z,11.75
2023-08-07T11:36:21.063Z,11.74
2023-08-07T11:38:40.283Z,11.82
2023-08-07T11:40:42.010Z,11.86
2023-08-07T11:42:43.603Z,11.95
2023-08-07T11:44:46.017Z,11.91
2023-08-07T11:46:47.628Z,11.98
2023-08-07T11:48:49.832Z,11.99
2023-08-07T11:50:53.263Z,12.02
2023-08-07T11:52:55.198Z,12.04
2023-08-07T11:54:56.777Z,12.05
2023-08-07T11:56:58.602Z,12.07
2023-08-07T11:59:00.513Z,12.00
2023-08-07T12:01:13.127Z,12.08
2023-08-07T12:03:35.569Z,12.03
2023-08-07T12:05:41.873Z,11.99
2023-08-07T12:07:43.858Z,11.82
2023-08-07T12:09:45.554Z,11.84
2023-08-07T12:11:47.219Z,11.81
2023-08-07T12:13:49.690Z,11.79
2023-08-07T12:15:52.565Z,11.84
2023-08-07T12:18:02.327Z,11.94
2023-08-07T12:20:11.258Z,11.94
2023-08-07T12:22:13.187Z,11.92
2023-08-07T12:24:14.818Z,11.93
2023-08-07T12:26:17.187Z,11.91
2023-08-07T12:28:19.217Z,11.92
2023-08-07T12:30:20.864Z,11.91
2023-08-07T12:32:22.767Z,11.95
2023-08-07T12:36:28.710Z,11.80
2023-08-07T12:38:30.355Z,11.81
2023-08-07T12:42:36.964Z,11.93
2023-08-07T12:44:38.708Z,11.92
2023-08-07T12:46:41.257Z,11.96
2023-08-07T12:48:42.882Z,11.98
2023-08-07T12:50:44.563Z,12.04
2023-08-07T12:52:46.422Z,11.97
2023-08-07T12:54:47.991Z,11.95
2023-08-07T12:56:49.969Z,12.06
2023-08-07T12:58:52.084Z,12.10
2023-08-07T13:00:53.901Z,12.16
2023-08-07T13:02:57.039Z,12.16
2023-08-07T13:04:58.681Z,12.26
2023-08-07T13:07:00.784Z,12.31
2023-08-07T13:09:02.752Z,12.33
2023-08-07T13:11:04.402Z,12.40
2023-08-07T13:13:06.588Z,12.47
2023-08-07T13:15:10.999Z,12.56
2023-08-07T13:17:13.076Z,12.55
2023-08-07T13:19:14.703Z,12.66
2023-08-07T13:21:18.306Z,12.76
2023-08-07T13:23:20.052Z,12.96
2023-08-07T13:25:21.583Z,13.07
2023-08-07T13:27:23.182Z,13.32
2023-08-07T13:29:27.323Z,13.69
2023-08-07T13:31:28.998Z,13.67
2023-08-07T13:33:30.579Z,13.91
2023-08-07T13:35:33.788Z,13.78
2023-08-07T13:37:35.572Z,13.89
2023-08-07T13:39:37.117Z,14.05
2023-08-07T13:41:38.668Z,14.21
2023-08-07T13:43:40.649Z,14.37
2023-08-07T13:45:42.177Z,14.51
2023-08-07T13:47:43.900Z,14.59
2023-08-07T13:49:45.776Z,14.47
2023-08-07T13:51:47.275Z,14.48
2023-08-07T13:53:48.829Z,14.34
2023-08-07T13:55:52.820Z,14.19
2023-08-07T13:57:55.831Z,14.06
2023-08-07T13:59:57.437Z,14.19
2023-08-07T14:02:00.831Z,14.08
2023-08-07T14:04:03.748Z,14.07
2023-08-07T14:06:05.374Z,14.02
2023-08-07T14:08:07.084Z,14.08
2023-08-07T14:10:09.040Z,13.98
2023-08-07T14:12:10.581Z,13.97
2023-08-07T14:14:12.241Z,13.97
2023-08-07T14:16:14.339Z,14.09
2023-08-07T14:18:16.881Z,14.49
2023-08-07T14:20:18.419Z,15.11
2023-08-07T14:22:20.054Z,15.50
2023-08-07T14:24:21.691Z,15.92
2023-08-07T14:26:23.353Z,16.46
2023-08-07T14:28:24.921Z,16.93
2023-08-07T14:30:26.510Z,17.04
2023-08-07T14:32:28.395Z,17.22
2023-08-07T14:34:29.977Z,17.33
2023-08-07T14:36:31.808Z,17.47
2023-08-07T14:38:33.352Z,17.81
2023-08-07T14:40:34.960Z,18.09
2023-08-07T14:42:36.504Z,17.97
2023-08-07T14:44:38.018Z,18.26
2023-08-07T14:46:39.657Z,18.71
2023-08-07T14:48:42.309Z,18.82
2023-08-07T14:50:43.873Z,18.95
2023-08-07T14:52:45.720Z,18.84
2023-08-07T14:54:47.361Z,19.12
2023-08-07T14:56:49.100Z,19.52
2023-08-07T14:58:50.660Z,19.50
2023-08-07T15:00:56.142Z,19.58
2023-08-07T15:02:59.186Z,19.99
2023-08-07T15:05:00.808Z,20.03
2023-08-07T15:07:02.428Z,20.20
2023-08-07T15:09:04.108Z,20.63
2023-08-07T15:11:05.653Z,20.56
2023-08-07T15:13:07.904Z,20.68
2023-08-07T15:15:09.792Z,21.01
2023-08-07T15:17:11.306Z,20.96
2023-08-07T15:19:13.066Z,20.69
2023-08-07T15:21:14.721Z,20.14
2023-08-07T15:23:16.690Z,19.47
2023-08-07T15:25:18.516Z,19.03
2023-08-07T15:27:20.188Z,19.09
2023-08-07T15:29:22.541Z,19.64
2023-08-07T15:31:24.424Z,20.24
2023-08-07T15:33:26.038Z,20.73
2023-08-07T15:35:30.999Z,20.93
2023-08-07T15:37:32.580Z,20.73
2023-08-07T15:39:34.442Z,20.92
2023-08-07T15:41:37.620Z,21.04
2023-08-07T15:43:39.884Z,20.91
2023-08-07T15:45:41.861Z,20.71
2023-08-07T15:47:43.453Z,21.04
2023-08-07T15:49:49.010Z,21.23
2023-08-07T15:51:50.797Z,21.01
2023-08-07T15:53:52.395Z,21.39
2023-08-07T15:55:54.009Z,21.56
2023-08-07T15:57:55.893Z,21.29
2023-08-07T15:59:57.836Z,21.09
2023-08-07T16:02:00.463Z,20.49
2023-08-07T16:04:03.649Z,19.83
2023-08-07T16:06:05.305Z,19.42
2023-08-07T16:08:09.400Z,19.39
2023-08-07T16:10:11.168Z,19.31
2023-08-07T16:12:12.950Z,19.21
2023-08-07T16:14:14.785Z,19.05
2023-08-07T16:16:16.598Z,18.87
2023-08-07T16:18:18.212Z,18.76
2023-08-07T16:20:20.334Z,18.65
2023-08-07T16:22:21.862Z,18.60
2023-08-07T16:24:24.427Z,18.37
2023-08-07T16:26:26.032Z,18.36
2023-08-07T16:28:27.740Z,18.21
2023-08-07T16:30:29.709Z,18.04
2023-08-07T16:32:32.372Z,17.95
2023-08-07T16:34:34.464Z,17.85
2023-08-07T16:36:37.149Z,17.57
2023-08-07T16:38:38.682Z,17.62
2023-08-07T16:40:40.357Z,17.66
2023-08-07T16:42:41.980Z,17.55
2023-08-07T16:44:44.171Z,17.61
2023-08-07T16:46:45.621Z,17.70
2023-08-07T16:48:47.590Z,17.36
2023-08-07T16:51:07.467Z,17.24
2023-08-07T16:53:12.154Z,17.25
2023-08-07T16:55:14.240Z,17.36
2023-08-07T16:57:18.191Z,17.36
2023-08-07T16:59:19.796Z,17.33
2023-08-07T17:01:21.593Z,17.30
2023-08-07T17:03:23.358Z,17.34
2023-08-07T17:05:25.919Z,17.16
2023-08-07T17:07:27.515Z,17.18
2023-08-07T17:09:29.559Z,17.15
2023-08-07T17:11:31.660Z,16.95
2023-08-07T17:13:33.282Z,16.88
2023-08-07T17:15:35.194Z,16.87
2023-08-07T17:17:36.909Z,16.74
2023-08-07T17:19:41.261Z,16.62
2023-08-07T17:21:42.867Z,16.60
2023-08-07T17:23:44.957Z,16.58
2023-08-07T17:25:46.536Z,16.38
2023-08-07T17:27:48.057Z,16.39
2023-08-07T17:29:49.687Z,16.41
2023-08-07T17:31:54.794Z,16.26
2023-08-07T17:33:56.641Z,16.03
2023-08-07T17:35:58.166Z,15.63
2023-08-07T17:37:59.704Z,15.33
2023-08-07T17:40:01.317Z,14.90
2023-08-07T17:42:03.099Z,14.60
2023-08-07T17:44:05.680Z,14.40
2023-08-07T17:46:07.283Z,14.32
2023-08-07T17:48:09.073Z,14.22
2023-08-07T17:50:10.758Z,14.30
2023-08-07T17:52:13.530Z,14.42
2023-08-07T17:54:15.284Z,14.54
2023-08-07T17:56:16.919Z,14.66
2023-08-07T17:58:18.933Z,14.56
2023-08-07T18:00:20.749Z,14.66
2023-08-07T18:02:22.581Z,14.71
2023-08-07T18:04:24.560Z,14.52
2023-08-07T18:06:29.887Z,14.74
2023-08-07T18:08:31.458Z,14.79
2023-08-07T18:10:33.877Z,14.74
2023-08-07T18:12:35.471Z,14.81
2023-08-07T18:14:37.594Z,14.92
2023-08-07T18:16:39.739Z,15.00
2023-08-07T18:18:42.467Z,14.98
2023-08-07T18:20:44.034Z,14.93
2023-08-07T18:22:45.558Z,14.92
2023-08-07T18:24:49.157Z,14.86
2023-08-07T18:26:50.766Z,14.89
2023-08-07T18:28:52.334Z,14.83
2023-08-07T18:30:53.938Z,14.88
2023-08-07T18:32:55.633Z,14.81
2023-08-07T18:34:57.587Z,14.76
2023-08-07T18:36:59.369Z,14.90
2023-08-07T18:39:01.157Z,14.87
2023-08-07T18:41:02.984Z,14.78
2023-08-07T18:43:04.763Z,14.78
2023-08-07T18:45:06.914Z,14.69
2023-08-07T18:47:08.526Z,14.76
2023-08-07T18:49:11.409Z,14.75
2023-08-07T18:51:13.194Z,14.60
2023-08-07T18:53:14.760Z,14.63
2023-08-07T18:55:16.297Z,14.63
2023-08-07T18:57:17.909Z,14.54
2023-08-07T18:59:20.653Z,14.48
2023-08-07T19:01:22.240Z,14.39
2023-08-07T19:03:24.412Z,14.32
2023-08-07T19:05:26.092Z,14.24
2023-08-07T19:07:28.103Z,14.09
2023-08-07T19:09:30.239Z,14.02
2023-08-07T19:11:32.687Z,14.03
2023-08-07T19:13:34.537Z,13.98
2023-08-07T19:15:36.090Z,13.90
2023-08-07T19:17:37.650Z,13.76
2023-08-07T19:19:40.716Z,13.90
2023-08-07T19:21:42.406Z,13.83
2023-08-07T19:23:43.942Z,13.82
2023-08-07T19:25:45.951Z,13.77
2023-08-07T19:27:47.556Z,13.79
2023-08-07T19:29:49.133Z,13.72
2023-08-07T19:31:50.787Z,13.55
2023-08-07T19:33:52.427Z,13.58
2023-08-07T19:35:54.055Z,13.60
2023-08-07T19:37:55.587Z,13.43
2023-08-07T19:39:57.318Z,13.54
2023-08-07T19:41:58.966Z,13.50
2023-08-07T19:44:00.996Z,13.48
2023-08-07T19:46:02.660Z,13.40
2023-08-07T19:48:04.706Z,13.37
2023-08-07T19:50:07.085Z,13.44
2023-08-07T19:52:08.657Z,13.43
2023-08-07T19:54:10.257Z,13.32
2023-08-07T19:56:11.848Z,13.23
2023-08-07T19:58:13.740Z,13.22
2023-08-07T20:00:15.811Z,13.10
2023-08-07T20:02:17.493Z,13.18
2023-08-07T20:04:19.460Z,13.05
2023-08-07T20:06:20.985Z,13.08
2023-08-07T20:08:22.586Z,12.86
2023-08-07T20:10:24.777Z,12.80
2023-08-07T20:12:26.895Z,12.86
2023-08-07T20:14:28.450Z,12.88
2023-08-07T20:16:32.478Z,12.88
2023-08-07T20:18:34.782Z,12.81
2023-08-07T20:20:36.865Z,12.63
2023-08-07T20:22:39.101Z,12.73
2023-08-07T20:24:40.724Z,12.67
2023-08-07T20:26:42.364Z,12.68
2023-08-07T20:28:43.928Z,12.74
2023-08-07T20:30:45.518Z,12.71
2023-08-07T20:32:47.204Z,12.75
2023-08-07T20:34:48.705Z,12.82
2023-08-07T20:36:50.332Z,12.86
2023-08-07T20:38:51.944Z,12.83
2023-08-07T20:40:54.141Z,12.80
2023-08-07T20:42:55.685Z,12.78
2023-08-07T20:44:57.566Z,12.85
2023-08-07T20:46:59.170Z,12.82
2023-08-07T20:49:01.276Z,12.79
2023-08-07T20:51:03.536Z,12.90
2023-08-07T20:53:05.194Z,12.88
2023-08-07T20:55:08.181Z,12.86
2023-08-07T20:57:09.646Z,12.81
2023-08-07T20:59:11.344Z,12.96
2023-08-07T21:01:12.959Z,12.72
2023-08-07T21:03:14.537Z,12.61
2023-08-07T21:05:16.057Z,12.77
2023-08-07T21:07:18.232Z,12.82
2023-08-07T21:09:20.243Z,12.84
2023-08-07T21:11:21.796Z,12.91
2023-08-07T21:13:23.426Z,12.92
2023-08-07T21:15:25.329Z,12.98
2023-08-07T21:17:26.964Z,13.00
2023-08-07T21:19:29.452Z,13.02
2023-08-07T21:21:31.093Z,12.90
2023-08-07T21:23:34.906Z,12.97
2023-08-07T21:25:37.531Z,13.01
2023-08-07T21:27:40.253Z,12.97
2023-08-07T21:29:41.795Z,13.04
2023-08-07T21:31:43.451Z,13.07
2023-08-07T21:33:44.995Z,13.10
2023-08-07T21:35:47.494Z,13.02
2023-08-07T21:37:49.122Z,12.83
2023-08-07T21:39:51.308Z,12.93
2023-08-07T21:41:52.967Z,12.94
2023-08-07T21:43:54.618Z,13.04
2023-08-07T21:45:56.367Z,13.04
2023-08-07T21:47:58.164Z,13.01
2023-08-07T21:49:59.697Z,13.08
2023-08-07T21:52:01.621Z,13.09
2023-08-07T21:54:03.480Z,13.12
2023-08-07T21:56:05.749Z,13.09
2023-08-07T21:58:07.292Z,12.98
2023-08-07T22:00:15.413Z,12.87
2023-08-07T22:02:17.133Z,12.82
2023-08-07T22:04:18.625Z,12.81
2023-08-07T22:06:20.245Z,12.83
2023-08-07T22:08:21.796Z,12.84
2023-08-07T22:10:23.673Z,12.84
2023-08-07T22:12:25.222Z,12.77
2023-08-07T22:14:26.721Z,12.80
2023-08-07T22:16:28.577Z,12.69
2023-08-07T22:18:30.167Z,12.71
2023-08-07T22:20:31.772Z,12.68
2023-08-07T22:22:33.884Z,12.56
2023-08-07T22:24:35.524Z,12.51
2023-08-07T22:26:37.267Z,12.42
2023-08-07T22:28:39.027Z,12.50
2023-08-07T22:30:40.600Z,12.42
2023-08-07T22:32:43.518Z,12.42
2023-08-07T22:34:45.368Z,12.28
2023-08-07T22:36:47.017Z,12.25
2023-08-07T22:38:48.797Z,12.34
2023-08-07T22:40:50.348Z,12.22
2023-08-07T22:42:51.903Z,12.30
2023-08-07T22:44:53.470Z,12.40
2023-08-07T22:46:56.706Z,12.46
2023-08-07T22:48:58.718Z,12.31
2023-08-07T22:51:00.548Z,12.35
2023-08-07T22:53:02.337Z,12.41
2023-08-07T22:55:04.160Z,12.42
2023-08-07T22:57:05.735Z,12.40
2023-08-07T22:59:09.358Z,12.44
2023-08-07T23:01:11.276Z,12.44
2023-08-07T23:03:12.906Z,12.38
2023-08-07T23:05:14.467Z,12.42
2023-08-07T23:07:16.826Z,12.51
2023-08-07T23:09:20.688Z,12.46
2023-08-07T23:11:22.332Z,12.46
2023-08-07T23:13:23.833Z,12.39
2023-08-07T23:15:25.434Z,12.41
2023-08-07T23:17:27.371Z,12.38
2023-08-07T23:19:28.966Z,12.38
2023-08-07T23:21:30.546Z,12.38
2023-08-07T23:23:32.112Z,12.39
2023-08-07T23:25:33.682Z,12.33
2023-08-07T23:27:35.401Z,12.35
2023-08-07T23:29:39.376Z,12.47
2023-08-07T23:31:41.543Z,12.42
2023-08-07T23:33:43.275Z,12.33
2023-08-07T23:35:44.801Z,12.38
2023-08-07T23:37:46.664Z,12.41
2023-08-07T23:39:48.175Z,12.32
2023-08-07T23:41:49.926Z,12.42
2023-08-07T23:43:51.865Z,12.33
2023-08-07T23:45:53.438Z,12.29
2023-08-07T23:47:54.991Z,12.32
2023-08-07T23:49:56.940Z,12.25
2023-08-07T23:51:58.856Z,12.13
2023-08-07T23:54:00.846Z,12.16
2023-08-07T23:56:03.049Z,12.29
2023-08-07T23:58:06.553Z,12.35
